YLY weather

Langley Airport
Langley, British Columbia, Canada

Public forecast

Using degrees Celsius for public forecast. Weather courtesy of forecast.io.

METAR (pilot weather report)

Closest report is Abbotsford Airport, 11.5 nm (21.4 km) ESE. Retrieved 2019/05/21 09:00 UTC (13 minutes ago):

CYXX 210900Z 34003KT 6SM -RA FEW015 SCT035 BKN055 OVC100 10/09 A2974 RMK SF1SC2SC4AC1 SLP072

TAF (pilot weather forecast)

Closest forecast is Abbotsford Airport, 11.5 nm (21.4 km) ESE. Retrieved 2019/05/21 06:42 UTC (3 hours ago):

TAF CYXX 210538Z 2106/2206 VRB03KT P6SM FEW005 SCT012 OVC030 TEMPO 2106/2109 3SM -RA BR SCT005 BKN012 OVC030 FM210900 VRB03KT P6SM SCT004 BKN015 OVC030 TEMPO 2109/2115 2SM -RA BR BKN004 OVC015 FM211500 VRB03KT P6SM SCT015 BKN030 TEMPO 2115/2121 P6SM -SHRA BKN015 FM212100 24008KT P6SM FEW030 SCT100 RMK NXT FCST BY 211200Z